sensor_id;sensor_type;location;lat;lon;timestamp;temperature;humidity
68248;SHT30;55064;49.636;12.164;2022-09-21T00:01:45;6.34;96.65
68248;SHT30;55064;49.636;12.164;2022-09-21T00:04:11;6.29;95.43
68248;SHT30;55064;49.636;12.164;2022-09-21T00:06:36;6.26;96.39
68248;SHT30;55064;49.636;12.164;2022-09-21T00:09:03;6.20;96.79
68248;SHT30;55064;49.636;12.164;2022-09-21T00:11:33;6.15;96.91
68248;SHT30;55064;49.636;12.164;2022-09-21T00:14:07;6.22;96.42
68248;SHT30;55064;49.636;12.164;2022-09-21T00:16:33;6.18;96.54
68248;SHT30;55064;49.636;12.164;2022-09-21T00:19:01;6.24;96.84
68248;SHT30;55064;49.636;12.164;2022-09-21T00:21:26;6.21;96.78
68248;SHT30;55064;49.636;12.164;2022-09-21T00:23:54;6.13;96.53
68248;SHT30;55064;49.636;12.164;2022-09-21T00:26:23;6.18;96.61
68248;SHT30;55064;49.636;12.164;2022-09-21T00:28:58;6.11;97.25
68248;SHT30;55064;49.636;12.164;2022-09-21T00:31:25;6.13;96.23
68248;SHT30;55064;49.636;12.164;2022-09-21T00:33:53;6.11;95.59
68248;SHT30;55064;49.636;12.164;2022-09-21T00:36:23;5.97;96.05
68248;SHT30;55064;49.636;12.164;2022-09-21T00:38:54;5.94;96.77
68248;SHT30;55064;49.636;12.164;2022-09-21T00:41:21;6.00;96.54
68248;SHT30;55064;49.636;12.164;2022-09-21T00:44:09;6.01;95.62
68248;SHT30;55064;49.636;12.164;2022-09-21T00:46:35;6.06;95.87
68248;SHT30;55064;49.636;12.164;2022-09-21T00:49:04;5.90;95.61
68248;SHT30;55064;49.636;12.164;2022-09-21T00:51:32;5.80;96.84
68248;SHT30;55064;49.636;12.164;2022-09-21T00:54:02;5.63;96.99
68248;SHT30;55064;49.636;12.164;2022-09-21T00:56:31;5.48;96.38
68248;SHT30;55064;49.636;12.164;2022-09-21T00:59:00;5.51;96.81
68248;SHT30;55064;49.636;12.164;2022-09-21T01:01:26;5.56;96.84
68248;SHT30;55064;49.636;12.164;2022-09-21T01:03:55;5.53;96.81
68248;SHT30;55064;49.636;12.164;2022-09-21T01:06:21;5.52;96.74
68248;SHT30;55064;49.636;12.164;2022-09-21T01:08:51;5.53;96.75
68248;SHT30;55064;49.636;12.164;2022-09-21T01:17:32;5.46;97.92
68248;SHT30;55064;49.636;12.164;2022-09-21T01:30:56;5.45;97.39
68248;SHT30;55064;49.636;12.164;2022-09-21T01:33:37;5.31;97.53
68248;SHT30;55064;49.636;12.164;2022-09-21T01:36:11;5.30;98.04
68248;SHT30;55064;49.636;12.164;2022-09-21T01:38:43;5.35;97.47
68248;SHT30;55064;49.636;12.164;2022-09-21T01:41:12;5.35;97.47
68248;SHT30;55064;49.636;12.164;2022-09-21T01:43:41;5.20;97.28
68248;SHT30;55064;49.636;12.164;2022-09-21T01:46:12;5.28;97.94
68248;SHT30;55064;49.636;12.164;2022-09-21T01:48:41;5.27;98.20
68248;SHT30;55064;49.636;12.164;2022-09-21T01:51:10;5.35;97.93
68248;SHT30;55064;49.636;12.164;2022-09-21T01:53:42;5.42;97.79
68248;SHT30;55064;49.636;12.164;2022-09-21T01:56:23;5.43;98.02
68248;SHT30;55064;49.636;12.164;2022-09-21T01:59:13;5.34;97.39
68248;SHT30;55064;49.636;12.164;2022-09-21T02:01:58;5.28;97.89
68248;SHT30;55064;49.636;12.164;2022-09-21T02:04:27;5.35;97.76
68248;SHT30;55064;49.636;12.164;2022-09-21T02:06:53;5.27;97.58
68248;SHT30;55064;49.636;12.164;2022-09-21T02:09:24;5.41;97.48
68248;SHT30;55064;49.636;12.164;2022-09-21T02:11:49;5.42;98.09
68248;SHT30;55064;49.636;12.164;2022-09-21T02:14:16;5.36;97.69
68248;SHT30;55064;49.636;12.164;2022-09-21T02:17:15;5.46;97.23
68248;SHT30;55064;49.636;12.164;2022-09-21T02:20:04;5.53;96.89
68248;SHT30;55064;49.636;12.164;2022-09-21T02:22:45;5.52;96.45
68248;SHT30;55064;49.636;12.164;2022-09-21T02:25:18;5.51;96.23
68248;SHT30;55064;49.636;12.164;2022-09-21T02:28:25;5.43;96.98
68248;SHT30;55064;49.636;12.164;2022-09-21T02:30:58;5.38;97.02
68248;SHT30;55064;49.636;12.164;2022-09-21T02:33:32;5.38;96.52
68248;SHT30;55064;49.636;12.164;2022-09-21T02:36:07;5.32;96.37
68248;SHT30;55064;49.636;12.164;2022-09-21T02:38:41;5.38;96.66
68248;SHT30;55064;49.636;12.164;2022-09-21T02:41:16;5.42;96.36
68248;SHT30;55064;49.636;12.164;2022-09-21T02:44:00;5.48;97.37
68248;SHT30;55064;49.636;12.164;2022-09-21T02:46:34;5.48;96.57
68248;SHT30;55064;49.636;12.164;2022-09-21T02:49:09;5.48;97.01
68248;SHT30;55064;49.636;12.164;2022-09-21T02:51:43;5.45;97.00
68248;SHT30;55064;49.636;12.164;2022-09-21T02:54:14;5.31;97.46
68248;SHT30;55064;49.636;12.164;2022-09-21T02:56:43;5.31;97.72
68248;SHT30;55064;49.636;12.164;2022-09-21T02:59:10;5.28;97.31
68248;SHT30;55064;49.636;12.164;2022-09-21T03:01:39;5.21;97.35
68248;SHT30;55064;49.636;12.164;2022-09-21T03:04:04;5.14;97.05
68248;SHT30;55064;49.636;12.164;2022-09-21T03:06:31;5.18;96.39
68248;SHT30;55064;49.636;12.164;2022-09-21T03:08:57;5.17;96.12
68248;SHT30;55064;49.636;12.164;2022-09-21T03:11:25;5.17;96.16
68248;SHT30;55064;49.636;12.164;2022-09-21T03:13:54;5.13;96.93
68248;SHT30;55064;49.636;12.164;2022-09-21T03:16:23;5.14;96.61
68248;SHT30;55064;49.636;12.164;2022-09-21T03:18:53;5.18;96.41
68248;SHT30;55064;49.636;12.164;2022-09-21T03:21:21;5.15;95.90
68248;SHT30;55064;49.636;12.164;2022-09-21T03:23:46;5.11;96.35
68248;SHT30;55064;49.636;12.164;2022-09-21T03:26:11;5.07;96.57
68248;SHT30;55064;49.636;12.164;2022-09-21T03:28:39;5.03;96.54
68248;SHT30;55064;49.636;12.164;2022-09-21T03:31:05;4.95;96.76
68248;SHT30;55064;49.636;12.164;2022-09-21T03:33:31;4.93;96.48
68248;SHT30;55064;49.636;12.164;2022-09-21T03:36:00;4.79;96.66
68248;SHT30;55064;49.636;12.164;2022-09-21T03:38:28;4.87;95.96
68248;SHT30;55064;49.636;12.164;2022-09-21T03:40:55;4.86;95.97
68248;SHT30;55064;49.636;12.164;2022-09-21T03:43:24;4.72;96.31
68248;SHT30;55064;49.636;12.164;2022-09-21T03:45:50;4.77;96.46
68248;SHT30;55064;49.636;12.164;2022-09-21T03:48:18;4.72;96.13
68248;SHT30;55064;49.636;12.164;2022-09-21T03:50:45;4.77;95.70
68248;SHT30;55064;49.636;12.164;2022-09-21T03:53:13;4.80;96.02
68248;SHT30;55064;49.636;12.164;2022-09-21T03:55:41;4.77;95.36
68248;SHT30;55064;49.636;12.164;2022-09-21T03:58:09;4.75;95.33
68248;SHT30;55064;49.636;12.164;2022-09-21T04:00:40;4.69;95.94
68248;SHT30;55064;49.636;12.164;2022-09-21T04:03:06;4.62;95.35
68248;SHT30;55064;49.636;12.164;2022-09-21T04:05:37;4.50;96.17
68248;SHT30;55064;49.636;12.164;2022-09-21T04:08:05;4.55;96.89
68248;SHT30;55064;49.636;12.164;2022-09-21T04:10:33;4.69;96.75
68248;SHT30;55064;49.636;12.164;2022-09-21T04:13:00;4.67;95.66
68248;SHT30;55064;49.636;12.164;2022-09-21T04:15:28;4.63;94.99
68248;SHT30;55064;49.636;12.164;2022-09-21T04:17:56;4.41;95.54
68248;SHT30;55064;49.636;12.164;2022-09-21T04:20:24;4.34;95.92
68248;SHT30;55064;49.636;12.164;2022-09-21T04:22:50;4.35;97.32
68248;SHT30;55064;49.636;12.164;2022-09-21T04:25:20;4.31;97.40
68248;SHT30;55064;49.636;12.164;2022-09-21T04:27:45;4.32;97.10
68248;SHT30;55064;49.636;12.164;2022-09-21T04:30:15;4.29;96.05
68248;SHT30;55064;49.636;12.164;2022-09-21T04:32:41;3.93;96.37
68248;SHT30;55064;49.636;12.164;2022-09-21T04:35:07;3.83;96.66
68248;SHT30;55064;49.636;12.164;2022-09-21T04:37:32;3.98;96.80
68248;SHT30;55064;49.636;12.164;2022-09-21T04:40:00;4.08;97.05
68248;SHT30;55064;49.636;12.164;2022-09-21T04:42:26;3.89;97.25
68248;SHT30;55064;49.636;12.164;2022-09-21T04:44:54;3.80;96.99
68248;SHT30;55064;49.636;12.164;2022-09-21T04:47:22;3.87;97.13
68248;SHT30;55064;49.636;12.164;2022-09-21T04:49:49;3.97;97.38
68248;SHT30;55064;49.636;12.164;2022-09-21T04:52:17;4.01;97.61
68248;SHT30;55064;49.636;12.164;2022-09-21T04:54:46;3.95;97.67
68248;SHT30;55064;49.636;12.164;2022-09-21T04:57:12;4.00;97.34
68248;SHT30;55064;49.636;12.164;2022-09-21T04:59:38;4.01;97.32
68248;SHT30;55064;49.636;12.164;2022-09-21T05:02:03;4.08;96.65
68248;SHT30;55064;49.636;12.164;2022-09-21T05:04:31;4.07;97.04
68248;SHT30;55064;49.636;12.164;2022-09-21T05:06:58;4.10;96.96
68248;SHT30;55064;49.636;12.164;2022-09-21T05:09:24;4.08;96.85
68248;SHT30;55064;49.636;12.164;2022-09-21T05:12:10;4.14;96.87
68248;SHT30;55064;49.636;12.164;2022-09-21T05:14:43;4.04;96.71
68248;SHT30;55064;49.636;12.164;2022-09-21T05:17:09;3.91;97.00
68248;SHT30;55064;49.636;12.164;2022-09-21T05:19:35;3.97;96.64
68248;SHT30;55064;49.636;12.164;2022-09-21T05:22:00;3.98;97.04
68248;SHT30;55064;49.636;12.164;2022-09-21T05:24:26;4.00;96.79
68248;SHT30;55064;49.636;12.164;2022-09-21T05:26:53;4.03;97.01
68248;SHT30;55064;49.636;12.164;2022-09-21T05:29:21;3.97;97.16
68248;SHT30;55064;49.636;12.164;2022-09-21T05:39:51;3.94;97.52
68248;SHT30;55064;49.636;12.164;2022-09-21T05:42:19;3.90;97.52
68248;SHT30;55064;49.636;12.164;2022-09-21T05:44:45;3.89;97.26
68248;SHT30;55064;49.636;12.164;2022-09-21T05:58:35;3.69;97.70
68248;SHT30;55064;49.636;12.164;2022-09-21T06:03:51;3.84;97.22
68248;SHT30;55064;49.636;12.164;2022-09-21T06:06:18;3.90;96.91
68248;SHT30;55064;49.636;12.164;2022-09-21T06:08:44;3.90;96.63
68248;SHT30;55064;49.636;12.164;2022-09-21T06:11:12;3.80;96.59
68248;SHT30;55064;49.636;12.164;2022-09-21T06:13:38;3.56;96.95
68248;SHT30;55064;49.636;12.164;2022-09-21T06:16:05;3.70;96.42
68248;SHT30;55064;49.636;12.164;2022-09-21T06:18:31;3.51;95.30
68248;SHT30;55064;49.636;12.164;2022-09-21T06:20:56;3.60;95.32
68248;SHT30;55064;49.636;12.164;2022-09-21T06:23:21;3.39;96.99
68248;SHT30;55064;49.636;12.164;2022-09-21T06:25:51;3.52;96.85
68248;SHT30;55064;49.636;12.164;2022-09-21T06:28:16;3.52;96.43
68248;SHT30;55064;49.636;12.164;2022-09-21T06:30:42;3.66;96.80
68248;SHT30;55064;49.636;12.164;2022-09-21T06:33:11;3.42;96.65
68248;SHT30;55064;49.636;12.164;2022-09-21T06:35:54;3.46;97.08
68248;SHT30;55064;49.636;12.164;2022-09-21T06:38:23;3.69;96.30
68248;SHT30;55064;49.636;12.164;2022-09-21T06:40:52;3.56;95.78
68248;SHT30;55064;49.636;12.164;2022-09-21T06:43:21;3.49;96.39
68248;SHT30;55064;49.636;12.164;2022-09-21T06:45:57;3.67;96.57
68248;SHT30;55064;49.636;12.164;2022-09-21T06:48:23;3.77;96.78
68248;SHT30;55064;49.636;12.164;2022-09-21T06:50:49;3.84;96.12
68248;SHT30;55064;49.636;12.164;2022-09-21T06:53:15;3.86;96.44
68248;SHT30;55064;49.636;12.164;2022-09-21T06:55:42;3.89;96.56
68248;SHT30;55064;49.636;12.164;2022-09-21T06:58:07;3.95;96.68
68248;SHT30;55064;49.636;12.164;2022-09-21T07:00:32;4.11;96.31
68248;SHT30;55064;49.636;12.164;2022-09-21T07:02:58;4.15;95.98
68248;SHT30;55064;49.636;12.164;2022-09-21T07:05:23;4.01;94.99
68248;SHT30;55064;49.636;12.164;2022-09-21T07:07:56;3.86;96.14
68248;SHT30;55064;49.636;12.164;2022-09-21T07:10:25;4.11;96.02
68248;SHT30;55064;49.636;12.164;2022-09-21T07:12:50;4.20;94.99
68248;SHT30;55064;49.636;12.164;2022-09-21T07:15:18;4.31;94.62
68248;SHT30;55064;49.636;12.164;2022-09-21T07:17:45;4.29;95.05
68248;SHT30;55064;49.636;12.164;2022-09-21T07:20:11;4.38;94.86
68248;SHT30;55064;49.636;12.164;2022-09-21T07:22:37;4.27;94.72
68248;SHT30;55064;49.636;12.164;2022-09-21T07:25:05;4.32;94.29
68248;SHT30;55064;49.636;12.164;2022-09-21T07:27:31;4.38;94.57
68248;SHT30;55064;49.636;12.164;2022-09-21T07:29:57;4.48;95.40
68248;SHT30;55064;49.636;12.164;2022-09-21T07:32:23;4.22;95.55
68248;SHT30;55064;49.636;12.164;2022-09-21T07:34:49;4.38;95.91
68248;SHT30;55064;49.636;12.164;2022-09-21T07:37:15;4.58;95.78
68248;SHT30;55064;49.636;12.164;2022-09-21T07:39:42;4.77;94.97
68248;SHT30;55064;49.636;12.164;2022-09-21T07:42:08;4.90;95.34
68248;SHT30;55064;49.636;12.164;2022-09-21T07:44:35;4.81;95.56
68248;SHT30;55064;49.636;12.164;2022-09-21T07:47:01;5.00;94.77
68248;SHT30;55064;49.636;12.164;2022-09-21T07:49:27;5.13;94.16
68248;SHT30;55064;49.636;12.164;2022-09-21T07:51:55;5.13;94.31
68248;SHT30;55064;49.636;12.164;2022-09-21T07:54:21;5.05;94.85
68248;SHT30;55064;49.636;12.164;2022-09-21T07:56:46;5.14;94.54
68248;SHT30;55064;49.636;12.164;2022-09-21T07:59:32;5.36;93.81
68248;SHT30;55064;49.636;12.164;2022-09-21T08:01:59;5.22;94.42
68248;SHT30;55064;49.636;12.164;2022-09-21T08:04:25;5.05;94.68
68248;SHT30;55064;49.636;12.164;2022-09-21T08:06:53;5.31;94.45
68248;SHT30;55064;49.636;12.164;2022-09-21T08:09:18;5.27;94.09
68248;SHT30;55064;49.636;12.164;2022-09-21T08:11:43;5.41;94.26
68248;SHT30;55064;49.636;12.164;2022-09-21T08:14:12;5.27;94.09
68248;SHT30;55064;49.636;12.164;2022-09-21T08:16:44;5.35;94.87
68248;SHT30;55064;49.636;12.164;2022-09-21T08:19:11;5.58;94.35
68248;SHT30;55064;49.636;12.164;2022-09-21T08:21:39;5.55;93.74
68248;SHT30;55064;49.636;12.164;2022-09-21T08:24:10;5.71;93.75
68248;SHT30;55064;49.636;12.164;2022-09-21T08:26:38;5.89;93.71
68248;SHT30;55064;49.636;12.164;2022-09-21T08:29:04;6.00;93.39
68248;SHT30;55064;49.636;12.164;2022-09-21T08:31:34;6.00;93.73
68248;SHT30;55064;49.636;12.164;2022-09-21T08:33:59;6.06;93.04
68248;SHT30;55064;49.636;12.164;2022-09-21T08:36:25;6.15;92.49
68248;SHT30;55064;49.636;12.164;2022-09-21T08:38:52;6.32;92.23
68248;SHT30;55064;49.636;12.164;2022-09-21T08:41:33;6.35;92.13
68248;SHT30;55064;49.636;12.164;2022-09-21T08:44:04;6.03;93.59
68248;SHT30;55064;49.636;12.164;2022-09-21T08:46:32;6.14;92.89
68248;SHT30;55064;49.636;12.164;2022-09-21T08:48:59;6.08;93.35
68248;SHT30;55064;49.636;12.164;2022-09-21T08:51:29;6.20;93.14
68248;SHT30;55064;49.636;12.164;2022-09-21T08:54:04;6.26;93.27
68248;SHT30;55064;49.636;12.164;2022-09-21T08:56:33;6.56;92.55
68248;SHT30;55064;49.636;12.164;2022-09-21T08:59:00;6.69;92.40
68248;SHT30;55064;49.636;12.164;2022-09-21T09:04:25;7.21;92.06
68248;SHT30;55064;49.636;12.164;2022-09-21T09:07:06;7.45;90.94
68248;SHT30;55064;49.636;12.164;2022-09-21T09:18:02;8.22;88.76
68248;SHT30;55064;49.636;12.164;2022-09-21T09:20:40;8.39;87.55
68248;SHT30;55064;49.636;12.164;2022-09-21T09:23:16;8.63;87.84
68248;SHT30;55064;49.636;12.164;2022-09-21T09:25:48;8.41;87.77
68248;SHT30;55064;49.636;12.164;2022-09-21T09:31:04;9.00;87.24
68248;SHT30;55064;49.636;12.164;2022-09-21T09:33:42;9.00;86.73
68248;SHT30;55064;49.636;12.164;2022-09-21T09:36:10;9.22;86.57
68248;SHT30;55064;49.636;12.164;2022-09-21T09:41:32;9.48;85.08
68248;SHT30;55064;49.636;12.164;2022-09-21T09:52:06;10.44;83.66
68248;SHT30;55064;49.636;12.164;2022-09-21T09:54:34;10.75;82.05
68248;SHT30;55064;49.636;12.164;2022-09-21T09:57:03;10.70;81.81
68248;SHT30;55064;49.636;12.164;2022-09-21T09:59:40;11.17;81.05
68248;SHT30;55064;49.636;12.164;2022-09-21T10:02:23;11.62;80.31
68248;SHT30;55064;49.636;12.164;2022-09-21T10:07:46;12.21;78.81
68248;SHT30;55064;49.636;12.164;2022-09-21T10:10:39;12.24;77.65
68248;SHT30;55064;49.636;12.164;2022-09-21T10:15:55;12.18;78.24
68248;SHT30;55064;49.636;12.164;2022-09-21T10:21:04;12.83;76.94
68248;SHT30;55064;49.636;12.164;2022-09-21T10:23:31;12.93;76.87
68248;SHT30;55064;49.636;12.164;2022-09-21T10:26:08;13.06;76.95
68248;SHT30;55064;49.636;12.164;2022-09-21T10:28:34;13.37;76.11
68248;SHT30;55064;49.636;12.164;2022-09-21T10:31:29;13.41;76.99
68248;SHT30;55064;49.636;12.164;2022-09-21T10:34:16;13.11;76.24
68248;SHT30;55064;49.636;12.164;2022-09-21T10:36:52;13.38;76.11
68248;SHT30;55064;49.636;12.164;2022-09-21T10:39:26;13.89;76.07
68248;SHT30;55064;49.636;12.164;2022-09-21T10:42:05;14.05;74.29
68248;SHT30;55064;49.636;12.164;2022-09-21T10:44:41;14.03;74.28
68248;SHT30;55064;49.636;12.164;2022-09-21T10:49:43;14.36;71.80
68248;SHT30;55064;49.636;12.164;2022-09-21T10:52:12;14.71;68.07
68248;SHT30;55064;49.636;12.164;2022-09-21T10:54:38;14.37;67.50
68248;SHT30;55064;49.636;12.164;2022-09-21T10:57:15;14.84;67.66
68248;SHT30;55064;49.636;12.164;2022-09-21T10:59:41;15.18;65.61
68248;SHT30;55064;49.636;12.164;2022-09-21T11:02:34;15.13;66.17
68248;SHT30;55064;49.636;12.164;2022-09-21T11:05:13;15.22;60.78
68248;SHT30;55064;49.636;12.164;2022-09-21T11:07:49;15.29;61.63
68248;SHT30;55064;49.636;12.164;2022-09-21T11:10:21;15.29;60.92
68248;SHT30;55064;49.636;12.164;2022-09-21T11:15:43;15.98;58.29
68248;SHT30;55064;49.636;12.164;2022-09-21T11:20:53;16.30;56.68
68248;SHT30;55064;49.636;12.164;2022-09-21T11:39:19;14.88;59.39
68248;SHT30;55064;49.636;12.164;2022-09-21T11:42:16;14.68;60.76
68248;SHT30;55064;49.636;12.164;2022-09-21T11:44:57;14.52;61.25
68248;SHT30;55064;49.636;12.164;2022-09-21T11:53:00;14.20;60.51
68248;SHT30;55064;49.636;12.164;2022-09-21T12:12:31;14.12;60.64
68248;SHT30;55064;49.636;12.164;2022-09-21T12:15:08;14.71;58.16
68248;SHT30;55064;49.636;12.164;2022-09-21T12:20:11;15.19;57.32
68248;SHT30;55064;49.636;12.164;2022-09-21T12:22:44;15.20;56.02
68248;SHT30;55064;49.636;12.164;2022-09-21T12:25:36;14.99;58.18
68248;SHT30;55064;49.636;12.164;2022-09-21T12:28:13;15.58;54.59
68248;SHT30;55064;49.636;12.164;2022-09-21T12:30:46;14.85;55.69
68248;SHT30;55064;49.636;12.164;2022-09-21T12:33:25;15.55;56.11
68248;SHT30;55064;49.636;12.164;2022-09-21T12:36:12;15.62;55.80
68248;SHT30;55064;49.636;12.164;2022-09-21T12:38:57;15.22;55.59
68248;SHT30;55064;49.636;12.164;2022-09-21T12:44:16;15.30;55.12
68248;SHT30;55064;49.636;12.164;2022-09-21T12:46:46;15.64;54.20
68248;SHT30;55064;49.636;12.164;2022-09-21T12:49:17;15.61;55.80
68248;SHT30;55064;49.636;12.164;2022-09-21T12:51:52;15.43;53.68
68248;SHT30;55064;49.636;12.164;2022-09-21T12:56:59;16.24;55.42
68248;SHT30;55064;49.636;12.164;2022-09-21T12:59:39;16.46;52.09
68248;SHT30;55064;49.636;12.164;2022-09-21T13:02:21;15.94;55.56
68248;SHT30;55064;49.636;12.164;2022-09-21T13:04:59;15.44;56.56
68248;SHT30;55064;49.636;12.164;2022-09-21T13:10:45;15.18;58.67
68248;SHT30;55064;49.636;12.164;2022-09-21T13:13:32;15.02;59.70
68248;SHT30;55064;49.636;12.164;2022-09-21T13:16:01;15.04;57.99
68248;SHT30;55064;49.636;12.164;2022-09-21T13:18:31;15.03;57.85
68248;SHT30;55064;49.636;12.164;2022-09-21T13:21:12;15.14;59.32
68248;SHT30;55064;49.636;12.164;2022-09-21T13:23:39;15.29;58.84
68248;SHT30;55064;49.636;12.164;2022-09-21T13:26:08;15.20;59.48
68248;SHT30;55064;49.636;12.164;2022-09-21T13:34:32;14.93;60.69
68248;SHT30;55064;49.636;12.164;2022-09-21T13:39:42;14.99;58.25
68248;SHT30;55064;49.636;12.164;2022-09-21T13:44:53;15.02;59.01
68248;SHT30;55064;49.636;12.164;2022-09-21T13:47:28;14.92;59.79
68248;SHT30;55064;49.636;12.164;2022-09-21T13:49:54;14.93;57.06
68248;SHT30;55064;49.636;12.164;2022-09-21T13:52:35;14.91;58.74
68248;SHT30;55064;49.636;12.164;2022-09-21T13:55:16;14.99;59.11
68248;SHT30;55064;49.636;12.164;2022-09-21T13:57:47;15.18;58.06
68248;SHT30;55064;49.636;12.164;2022-09-21T14:02:57;14.85;61.34
68248;SHT30;55064;49.636;12.164;2022-09-21T14:15:54;14.58;63.29
68248;SHT30;55064;49.636;12.164;2022-09-21T14:18:34;14.64;63.48
68248;SHT30;55064;49.636;12.164;2022-09-21T14:23:37;14.67;64.58
68248;SHT30;55064;49.636;12.164;2022-09-21T14:26:20;14.52;64.04
68248;SHT30;55064;49.636;12.164;2022-09-21T14:29:05;14.42;64.32
68248;SHT30;55064;49.636;12.164;2022-09-21T14:31:35;14.37;64.63
68248;SHT30;55064;49.636;12.164;2022-09-21T14:34:13;14.41;65.39
68248;SHT30;55064;49.636;12.164;2022-09-21T14:36:44;14.42;64.65
68248;SHT30;55064;49.636;12.164;2022-09-21T14:39:37;14.68;64.76
68248;SHT30;55064;49.636;12.164;2022-09-21T14:42:16;14.67;64.57
68248;SHT30;55064;49.636;12.164;2022-09-21T14:44:45;14.27;61.55
68248;SHT30;55064;49.636;12.164;2022-09-21T14:50:01;14.24;62.34
68248;SHT30;55064;49.636;12.164;2022-09-21T14:58:47;14.71;61.36
68248;SHT30;55064;49.636;12.164;2022-09-21T15:06:25;14.93;58.74
68248;SHT30;55064;49.636;12.164;2022-09-21T15:12:51;15.03;57.49
68248;SHT30;55064;49.636;12.164;2022-09-21T15:17:59;15.27;57.97
68248;SHT30;55064;49.636;12.164;2022-09-21T15:20:28;15.39;58.04
68248;SHT30;55064;49.636;12.164;2022-09-21T15:22:55;15.47;55.85
68248;SHT30;55064;49.636;12.164;2022-09-21T15:25:23;15.55;55.88
68248;SHT30;55064;49.636;12.164;2022-09-21T15:27:50;15.62;56.25
68248;SHT30;55064;49.636;12.164;2022-09-21T15:30:24;15.57;54.09
68248;SHT30;55064;49.636;12.164;2022-09-21T15:32:59;15.48;56.22
68248;SHT30;55064;49.636;12.164;2022-09-21T15:35:26;15.62;57.23
68248;SHT30;55064;49.636;12.164;2022-09-21T15:37:53;15.71;56.26
68248;SHT30;55064;49.636;12.164;2022-09-21T15:40:23;15.64;54.13
68248;SHT30;55064;49.636;12.164;2022-09-21T15:43:05;15.51;53.28
68248;SHT30;55064;49.636;12.164;2022-09-21T15:48:25;15.71;55.34
68248;SHT30;55064;49.636;12.164;2022-09-21T15:50:59;15.57;55.09
68248;SHT30;55064;49.636;12.164;2022-09-21T15:53:31;15.53;54.28
68248;SHT30;55064;49.636;12.164;2022-09-21T15:56:05;15.47;54.52
68248;SHT30;55064;49.636;12.164;2022-09-21T15:58:33;15.46;54.36
68248;SHT30;55064;49.636;12.164;2022-09-21T16:01:17;15.41;55.08
68248;SHT30;55064;49.636;12.164;2022-09-21T16:03:48;15.34;56.14
68248;SHT30;55064;49.636;12.164;2022-09-21T16:06:26;15.40;56.82
68248;SHT30;55064;49.636;12.164;2022-09-21T16:08:52;15.33;57.91
68248;SHT30;55064;49.636;12.164;2022-09-21T16:22:23;15.10;56.68
68248;SHT30;55064;49.636;12.164;2022-09-21T16:24:51;15.04;57.19
68248;SHT30;55064;49.636;12.164;2022-09-21T16:27:21;15.04;58.39
68248;SHT30;55064;49.636;12.164;2022-09-21T16:29:48;14.95;59.73
68248;SHT30;55064;49.636;12.164;2022-09-21T16:32:31;14.88;59.96
68248;SHT30;55064;49.636;12.164;2022-09-21T16:35:23;14.81;60.79
68248;SHT30;55064;49.636;12.164;2022-09-21T16:37:52;14.81;60.61
68248;SHT30;55064;49.636;12.164;2022-09-21T16:40:23;14.75;60.49
68248;SHT30;55064;49.636;12.164;2022-09-21T16:42:49;14.65;60.25
68248;SHT30;55064;49.636;12.164;2022-09-21T16:45:27;14.60;61.97
68248;SHT30;55064;49.636;12.164;2022-09-21T16:47:56;14.10;68.75
68248;SHT30;55064;49.636;12.164;2022-09-21T16:50:25;13.41;72.40
68248;SHT30;55064;49.636;12.164;2022-09-21T16:52:50;13.10;74.07
68248;SHT30;55064;49.636;12.164;2022-09-21T16:55:21;13.02;74.63
68248;SHT30;55064;49.636;12.164;2022-09-21T16:57:47;12.81;75.45
68248;SHT30;55064;49.636;12.164;2022-09-21T17:00:15;12.75;75.44
68248;SHT30;55064;49.636;12.164;2022-09-21T17:02:45;12.76;75.58
68248;SHT30;55064;49.636;12.164;2022-09-21T17:05:10;12.62;75.97
68248;SHT30;55064;49.636;12.164;2022-09-21T17:07:40;12.49;76.42
68248;SHT30;55064;49.636;12.164;2022-09-21T17:10:15;12.24;77.31
68248;SHT30;55064;49.636;12.164;2022-09-21T17:12:42;12.13;77.79
68248;SHT30;55064;49.636;12.164;2022-09-21T17:15:11;11.97;78.23
68248;SHT30;55064;49.636;12.164;2022-09-21T17:17:37;11.89;78.48
68248;SHT30;55064;49.636;12.164;2022-09-21T17:20:16;11.71;78.99
68248;SHT30;55064;49.636;12.164;2022-09-21T17:22:47;11.34;80.33
68248;SHT30;55064;49.636;12.164;2022-09-21T17:25:12;11.20;80.37
68248;SHT30;55064;49.636;12.164;2022-09-21T17:27:38;11.04;80.37
68248;SHT30;55064;49.636;12.164;2022-09-21T17:30:11;10.84;81.34
68248;SHT30;55064;49.636;12.164;2022-09-21T17:32:37;10.69;82.03
68248;SHT30;55064;49.636;12.164;2022-09-21T17:35:21;10.63;82.13
68248;SHT30;55064;49.636;12.164;2022-09-21T17:37:50;10.48;82.51
68248;SHT30;55064;49.636;12.164;2022-09-21T17:40:16;10.44;82.39
68248;SHT30;55064;49.636;12.164;2022-09-21T17:42:42;10.37;82.54
68248;SHT30;55064;49.636;12.164;2022-09-21T17:45:15;10.40;82.51
68248;SHT30;55064;49.636;12.164;2022-09-21T17:47:46;10.46;82.11
68248;SHT30;55064;49.636;12.164;2022-09-21T17:50:25;10.31;82.58
68248;SHT30;55064;49.636;12.164;2022-09-21T17:52:52;10.46;82.13
68248;SHT30;55064;49.636;12.164;2022-09-21T17:55:38;10.48;82.05
68248;SHT30;55064;49.636;12.164;2022-09-21T18:01:05;10.37;82.02
68248;SHT30;55064;49.636;12.164;2022-09-21T18:03:36;10.34;82.13
68248;SHT30;55064;49.636;12.164;2022-09-21T18:06:07;10.37;81.90
68248;SHT30;55064;49.636;12.164;2022-09-21T18:08:33;10.32;81.93
68248;SHT30;55064;49.636;12.164;2022-09-21T18:11:05;10.10;82.42
68248;SHT30;55064;49.636;12.164;2022-09-21T18:20:19;10.00;82.67
68248;SHT30;55064;49.636;12.164;2022-09-21T18:23:13;9.91;83.14
68248;SHT30;55064;49.636;12.164;2022-09-21T18:25:43;9.87;83.15
68248;SHT30;55064;49.636;12.164;2022-09-21T18:28:28;9.83;83.41
68248;SHT30;55064;49.636;12.164;2022-09-21T18:45:26;9.41;84.11
68248;SHT30;55064;49.636;12.164;2022-09-21T18:53:55;9.05;85.85
68248;SHT30;55064;49.636;12.164;2022-09-21T18:56:22;8.96;86.07
68248;SHT30;55064;49.636;12.164;2022-09-21T18:58:48;8.80;86.68
68248;SHT30;55064;49.636;12.164;2022-09-21T19:01:15;8.84;86.34
68248;SHT30;55064;49.636;12.164;2022-09-21T19:03:41;8.94;85.94
68248;SHT30;55064;49.636;12.164;2022-09-21T19:06:33;8.88;86.00
68248;SHT30;55064;49.636;12.164;2022-09-21T19:25:48;8.31;88.07
68248;SHT30;55064;49.636;12.164;2022-09-21T19:28:43;8.38;87.74
68248;SHT30;55064;49.636;12.164;2022-09-21T19:31:14;8.39;87.66
68248;SHT30;55064;49.636;12.164;2022-09-21T19:33:46;8.44;87.42
68248;SHT30;55064;49.636;12.164;2022-09-21T19:36:12;8.37;87.47
68248;SHT30;55064;49.636;12.164;2022-09-21T19:38:38;8.28;87.51
68248;SHT30;55064;49.636;12.164;2022-09-21T19:46:58;8.37;86.50
68248;SHT30;55064;49.636;12.164;2022-09-21T19:49:35;8.27;86.91
68248;SHT30;55064;49.636;12.164;2022-09-21T19:52:03;8.25;87.03
68248;SHT30;55064;49.636;12.164;2022-09-21T19:54:29;8.27;86.89